Terminal Aerodrome Forecast
Issued by NWS Portland, OR

Home | Current Version | Previous Version | Text Only | Print | Product List | Glossary On
Versions: 1 2 3 4 5 6 7 8 9 10 11 12 13 14 15 16 17 18 19 20 21 22 23 24 25 26 27 28 29 30 31 32 33 34
000
FTUS46 KPQR 011737
TAFAST
TAF
KAST 011737Z 0118/0218 VRB03KT P6SM FEW250
     FM012100 28007KT P6SM SCT050 BKN100
     FM020400 VRB03KT 5SM -RADZ BR OVC025
     FM020800 VRB03KT 5SM BR BKN012 OVC025
     FM021200 VRB03KT P6SM SKC=

USA.gov is the U.S. government's official web portal to all federal, state and local government web resources and services.